LTFM

Istanbul Airport

Code ICAO LTFM
Code IATA IST
Nom Istanbul Airport
Emplacement Istanbul, Istanbul, TR
Élévation 325 pieds / 99.1 mètres
Latitude 41.27533300
Longitude 28.75200000
METAR LTFM 100150Z 21021KT CAVOK 16/10 Q1014 NOSIG
Informations extras Afficher NOTAMS
Afficher cartes
Piste Longueur Largeur Surface Élévation